Time;durP1;ratioP1;P1;durP2;ratioP2;P2;SDS_P1;SDS_P2;PMS_P1;PMS_P2;Temp;Humidity;BMP_temperature;BMP_pressure;BME280_temperature;BME280_humidity;BME280_pressure;Samples;Min_cycle;Max_cycle;Signal;HPM_P1;HPM_P2
2021/10/14 00:02:26;;;;;;;;;;;18.30;44.10;;;;;;8235843;28;19922;-48
2021/10/14 00:06:27;;;;;;;;;;;18.30;44.10;;;;;;8235556;28;19921;-48
2021/10/14 00:10:28;;;;;;;;;;;18.20;44.00;;;;;;8235972;28;20291;-50
2021/10/14 00:14:28;;;;;;;;;;;18.20;44.00;;;;;;8236287;28;20005;-48
2021/10/14 00:18:29;;;;;;;;;;;18.20;44.00;;;;;;8235203;28;19936;-51
2021/10/14 00:22:29;;;;;;;;;;;18.20;44.00;;;;;;8235356;28;20013;-48
2021/10/14 00:26:30;;;;;;;;;;;18.20;44.10;;;;;;8235255;28;19910;-48
2021/10/14 00:30:31;;;;;;;;;;;18.20;44.00;;;;;;8235588;28;19997;-51
2021/10/14 00:34:31;;;;;;;;;;;18.20;44.00;;;;;;8234911;28;19918;-48
2021/10/14 00:38:32;;;;;;;;;;;18.20;44.00;;;;;;8235096;28;20253;-49
2021/10/14 00:42:32;;;;;;;;;;;18.20;44.00;;;;;;8234258;28;19922;-50
2021/10/14 00:46:33;;;;;;;;;;;18.20;44.00;;;;;;8234056;28;20275;-48
2021/10/14 00:50:33;;;;;;;;;;;18.20;44.60;;;;;;8235449;28;20445;-49
2021/10/14 00:54:34;;;;;;;;;;;18.10;44.00;;;;;;8234423;28;19965;-50
2021/10/14 00:58:35;;;;;;;;;;;18.20;44.00;;;;;;8234296;28;19997;-50
2021/10/14 01:02:35;;;;;;;;;;;18.10;44.00;;;;;;8234180;28;19922;-51
2021/10/14 01:06:36;;;;;;;;;;;18.10;44.00;;;;;;8233465;28;19964;-50
2021/10/14 01:10:36;;;;;;;;;;;18.10;44.00;;;;;;8234207;28;20438;-46
2021/10/14 01:14:37;;;;;;;;;;;18.10;43.90;;;;;;8234177;28;19917;-48
2021/10/14 01:18:37;;;;;;;;;;;18.10;43.90;;;;;;8233333;28;19914;-49
2021/10/14 01:22:38;;;;;;;;;;;18.10;43.90;;;;;;8234370;28;19970;-47
2021/10/14 01:26:39;;;;;;;;;;;18.10;43.90;;;;;;8233808;28;19921;-48
2021/10/14 01:30:40;;;;;;;;;;;18.10;43.90;;;;;;8233620;28;19953;-49
2021/10/14 01:34:41;;;;;;;;;;;18.10;43.90;;;;;;8233645;28;19933;-51
2021/10/14 01:38:41;;;;;;;;;;;18.10;43.90;;;;;;8233339;28;19929;-48
2021/10/14 01:42:42;;;;;;;;;;;18.10;43.90;;;;;;8233908;28;19922;-47
2021/10/14 01:46:42;;;;;;;;;;;18.00;43.90;;;;;;8233266;28;20348;-47
2021/10/14 01:50:43;;;;;;;;;;;18.00;43.80;;;;;;8232858;28;20368;-48
2021/10/14 01:54:43;;;;;;;;;;;18.00;43.90;;;;;;8233813;28;19921;-48
2021/10/14 01:58:43;;;;;;;;;;;18.00;43.80;;;;;;8240448;28;19916;-49
2021/10/14 02:02:44;;;;;;;;;;;18.00;43.80;;;;;;8239088;28;19929;-49
2021/10/14 02:06:44;;;;;;;;;;;18.00;43.90;;;;;;8239501;28;19969;-48
2021/10/14 02:10:45;;;;;;;;;;;18.00;43.90;;;;;;8239614;28;19914;-49
2021/10/14 02:14:45;;;;;;;;;;;18.00;43.90;;;;;;8239454;28;19910;-49
2021/10/14 02:18:46;;;;;;;;;;;18.00;43.90;;;;;;8239124;28;19954;-48
2021/10/14 02:22:46;;;;;;;;;;;18.00;43.80;;;;;;8238746;28;19933;-47
2021/10/14 02:26:47;;;;;;;;;;;17.90;43.80;;;;;;8238612;28;20282;-49
2021/10/14 02:30:47;;;;;;;;;;;17.90;43.80;;;;;;8238742;28;19918;-49
2021/10/14 02:34:48;;;;;;;;;;;17.90;44.30;;;;;;8239329;28;19910;-48
2021/10/14 02:38:48;;;;;;;;;;;17.90;43.80;;;;;;8238066;28;19914;-49
2021/10/14 02:42:48;;;;;;;;;;;17.90;43.80;;;;;;8237976;28;19922;-48
2021/10/14 02:46:49;;;;;;;;;;;17.90;43.80;;;;;;8238254;28;19914;-48
2021/10/14 02:50:49;;;;;;;;;;;17.90;43.80;;;;;;8238591;28;19953;-47
2021/10/14 02:54:50;;;;;;;;;;;17.90;43.80;;;;;;8238534;28;19924;-47
2021/10/14 02:58:50;;;;;;;;;;;17.90;43.80;;;;;;8237980;28;19914;-48
2021/10/14 03:02:51;;;;;;;;;;;17.90;43.80;;;;;;8237305;28;20109;-48
2021/10/14 03:06:51;;;;;;;;;;;17.90;43.80;;;;;;8237583;28;19929;-48
2021/10/14 03:10:51;;;;;;;;;;;17.80;43.70;;;;;;8238356;28;20387;-49
2021/10/14 03:14:52;;;;;;;;;;;17.90;43.80;;;;;;8237089;28;19910;-48
2021/10/14 03:18:52;;;;;;;;;;;17.80;43.90;;;;;;8237478;28;19953;-48
2021/10/14 03:22:53;;;;;;;;;;;17.80;43.80;;;;;;8237320;28;19918;-49
2021/10/14 03:26:53;;;;;;;;;;;17.80;43.80;;;;;;8237392;28;20372;-47
2021/10/14 03:30:54;;;;;;;;;;;17.80;43.80;;;;;;8237010;28;20355;-48
2021/10/14 03:34:54;;;;;;;;;;;17.80;43.80;;;;;;8236940;28;20363;-48
2021/10/14 03:38:54;;;;;;;;;;;17.80;43.80;;;;;;8236482;28;20009;-47
2021/10/14 03:42:55;;;;;;;;;;;17.80;43.80;;;;;;8237419;28;19973;-47
2021/10/14 03:46:55;;;;;;;;;;;17.80;43.80;;;;;;8236416;28;19914;-47
2021/10/14 03:50:56;;;;;;;;;;;17.80;43.80;;;;;;8232892;28;19936;-48
2021/10/14 03:54:56;;;;;;;;;;;17.80;43.70;;;;;;8236509;28;20284;-47
2021/10/14 03:58:57;;;;;;;;;;;17.80;43.70;;;;;;8236220;28;19934;-51
2021/10/14 04:02:57;;;;;;;;;;;17.80;43.80;;;;;;8236435;28;20009;-48
2021/10/14 04:06:58;;;;;;;;;;;17.70;43.70;;;;;;8235173;28;19914;-47
2021/10/14 04:10:58;;;;;;;;;;;17.80;43.70;;;;;;8235934;28;20291;-47
2021/10/14 04:14:58;;;;;;;;;;;17.70;43.70;;;;;;8235246;28;19943;-48
2021/10/14 04:18:59;;;;;;;;;;;17.80;43.70;;;;;;8235424;28;19917;-48
2021/10/14 04:22:59;;;;;;;;;;;17.70;43.60;;;;;;8235330;28;20375;-47
2021/10/14 04:27:00;;;;;;;;;;;17.70;43.70;;;;;;8234951;28;19922;-47
2021/10/14 04:31:00;;;;;;;;;;;17.70;43.70;;;;;;8235371;28;20392;-47
2021/10/14 04:35:02;;;;;;;;;;;17.70;43.60;;;;;;8235751;28;19989;-47
2021/10/14 04:39:03;;;;;;;;;;;17.70;43.60;;;;;;8234535;28;20376;-47
2021/10/14 04:43:03;;;;;;;;;;;17.70;43.60;;;;;;8235075;28;20013;-48
2021/10/14 04:47:04;;;;;;;;;;;17.70;44.10;;;;;;8234678;28;19914;-48
2021/10/14 04:51:05;;;;;;;;;;;17.70;43.60;;;;;;8232824;28;19910;-48
2021/10/14 04:55:06;;;;;;;;;;;17.70;43.70;;;;;;8235129;28;19918;-48
2021/10/14 04:59:07;;;;;;;;;;;17.60;43.60;;;;;;8234562;28;19914;-47
2021/10/14 05:03:07;;;;;;;;;;;17.60;43.60;;;;;;8233740;28;19973;-48
2021/10/14 05:07:07;;;;;;;;;;;17.60;43.50;;;;;;8234003;28;20022;-47
2021/10/14 05:11:09;;;;;;;;;;;17.60;43.60;;;;;;8234662;28;19977;-48
2021/10/14 05:15:09;;;;;;;;;;;17.60;43.60;;;;;;8233503;28;19997;-48
2021/10/14 05:19:10;;;;;;;;;;;17.60;43.60;;;;;;8233716;28;20295;-48
2021/10/14 05:23:10;;;;;;;;;;;17.60;43.60;;;;;;8232090;28;19925;-48
2021/10/14 05:27:11;;;;;;;;;;;17.60;43.60;;;;;;8233817;28;19914;-47
2021/10/14 05:31:11;;;;;;;;;;;17.60;43.60;;;;;;8233294;28;20023;-48
2021/10/14 05:35:12;;;;;;;;;;;17.60;43.50;;;;;;8233469;28;20479;-49
2021/10/14 05:39:12;;;;;;;;;;;17.60;43.50;;;;;;8233064;28;19918;-47
2021/10/14 05:43:13;;;;;;;;;;;17.60;43.50;;;;;;8233419;28;19933;-50
2021/10/14 05:47:13;;;;;;;;;;;17.60;43.50;;;;;;8233967;28;19960;-49
2021/10/14 05:51:14;;;;;;;;;;;17.50;43.60;;;;;;8232540;28;19927;-48
2021/10/14 05:55:14;;;;;;;;;;;17.50;43.80;;;;;;8233641;28;19925;-48
2021/10/14 05:59:14;;;;;;;;;;;17.50;43.50;;;;;;8233082;28;19934;-48
2021/10/14 06:03:15;;;;;;;;;;;17.50;43.60;;;;;;8233102;28;19961;-47
2021/10/14 06:07:16;;;;;;;;;;;17.50;43.50;;;;;;8232773;28;19914;-48
2021/10/14 06:11:16;;;;;;;;;;;17.50;43.50;;;;;;8232729;28;19953;-47
2021/10/14 06:15:17;;;;;;;;;;;17.50;43.60;;;;;;8232336;28;20441;-47
2021/10/14 06:19:17;;;;;;;;;;;17.50;43.50;;;;;;8232878;28;19969;-47
2021/10/14 06:23:18;;;;;;;;;;;17.50;43.50;;;;;;8233019;28;19926;-48
2021/10/14 06:27:18;;;;;;;;;;;17.50;43.50;;;;;;8232083;28;19918;-48
2021/10/14 06:31:19;;;;;;;;;;;17.50;43.40;;;;;;8232755;28;19914;-48
2021/10/14 06:35:19;;;;;;;;;;;17.50;43.40;;;;;;8232811;28;19992;-48
2021/10/14 06:39:20;;;;;;;;;;;17.50;43.50;;;;;;8232736;28;20347;-48
2021/10/14 06:43:20;;;;;;;;;;;17.50;43.50;;;;;;8235043;28;20303;-47
2021/10/14 06:47:21;;;;;;;;;;;17.40;43.40;;;;;;8238396;28;19957;-49
2021/10/14 06:51:21;;;;;;;;;;;17.40;43.50;;;;;;8237816;28;20467;-48
2021/10/14 06:55:22;;;;;;;;;;;17.40;43.50;;;;;;8238861;28;19926;-48
2021/10/14 06:59:22;;;;;;;;;;;17.40;43.40;;;;;;8238162;28;19914;-47
2021/10/14 07:03:22;;;;;;;;;;;17.50;43.50;;;;;;8237344;28;19922;-48
2021/10/14 07:07:23;;;;;;;;;;;17.40;43.40;;;;;;8236939;28;19917;-48
2021/10/14 07:11:31;;;;;;;;;;;17.40;43.40;;;;;;8237443;28;19921;-49
2021/10/14 07:15:32;;;;;;;;;;;17.40;43.50;;;;;;8238155;28;19958;-47
2021/10/14 07:19:33;;;;;;;;;;;17.40;43.40;;;;;;8237238;28;19918;-47
2021/10/14 07:23:33;;;;;;;;;;;17.40;43.50;;;;;;8237265;28;19964;-48
2021/10/14 07:27:34;;;;;;;;;;;17.40;43.40;;;;;;8237012;28;19976;-48
2021/10/14 07:31:34;;;;;;;;;;;17.40;43.30;;;;;;8237888;28;19933;-48
2021/10/14 07:35:36;;;;;;;;;;;17.50;43.30;;;;;;8237023;28;19914;-48
2021/10/14 07:39:36;;;;;;;;;;;17.50;43.30;;;;;;8236312;28;19914;-48
2021/10/14 07:43:37;;;;;;;;;;;17.50;43.30;;;;;;8236688;28;19921;-49
2021/10/14 07:47:37;;;;;;;;;;;17.50;43.40;;;;;;8237327;28;20378;-50
2021/10/14 07:51:38;;;;;;;;;;;17.50;43.30;;;;;;8235924;28;19921;-48
2021/10/14 07:55:39;;;;;;;;;;;17.50;43.40;;;;;;8236149;28;19914;-48
2021/10/14 07:59:40;;;;;;;;;;;17.50;43.40;;;;;;8236217;28;19918;-51
2021/10/14 08:03:40;;;;;;;;;;;17.50;43.50;;;;;;8235900;28;19922;-50
2021/10/14 08:07:41;;;;;;;;;;;17.50;43.50;;;;;;8236505;28;19914;-48
2021/10/14 08:11:42;;;;;;;;;;;17.50;43.50;;;;;;8235399;28;19922;-49
2021/10/14 08:15:48;;;;;;;;;;;17.50;43.50;;;;;;8235474;28;20043;-49
2021/10/14 08:19:49;;;;;;;;;;;17.50;43.50;;;;;;8235973;28;19977;-48
2021/10/14 08:23:49;;;;;;;;;;;17.50;43.60;;;;;;8235677;28;19973;-48
2021/10/14 08:27:50;;;;;;;;;;;17.50;43.60;;;;;;8235396;28;19914;-49
2021/10/14 08:31:50;;;;;;;;;;;17.50;43.60;;;;;;8235208;28;20330;-48
2021/10/14 08:35:51;;;;;;;;;;;17.50;43.60;;;;;;8234614;28;19993;-48
2021/10/14 08:39:52;;;;;;;;;;;17.50;43.60;;;;;;8234777;28;19997;-48
2021/10/14 08:43:52;;;;;;;;;;;17.50;43.60;;;;;;8235476;28;19922;-49
2021/10/14 08:47:53;;;;;;;;;;;17.50;43.50;;;;;;8234203;28;19921;-48
2021/10/14 08:51:54;;;;;;;;;;;17.50;43.60;;;;;;8234631;28;20326;-48
2021/10/14 08:55:55;;;;;;;;;;;17.50;43.60;;;;;;8235955;28;19921;-47
2021/10/14 08:59:55;;;;;;;;;;;17.50;43.60;;;;;;8238362;28;19910;-47
2021/10/14 09:03:56;;;;;;;;;;;17.50;43.60;;;;;;8236840;28;19929;-49
2021/10/14 09:07:56;;;;;;;;;;;17.50;43.60;;;;;;8236893;28;19922;-52
2021/10/14 09:12:03;;;;;;;;;;;17.50;43.60;;;;;;8235255;28;19921;-48
2021/10/14 09:16:21;;;;;;;;;;;17.50;43.60;;;;;;8234215;28;19910;-48
2021/10/14 09:20:24;;;;;;;;;;;17.50;43.60;;;;;;8234416;28;19917;-51
2021/10/14 09:24:27;;;;;;;;;;;17.60;43.70;;;;;;8233250;28;19977;-49
2021/10/14 09:28:28;;;;;;;;;;;17.60;43.70;;;;;;8233785;28;19914;-47
2021/10/14 09:32:29;;;;;;;;;;;17.60;43.70;;;;;;8233539;28;20283;-47
2021/10/14 09:36:30;;;;;;;;;;;17.60;43.70;;;;;;8233510;28;19917;-47
2021/10/14 09:40:30;;;;;;;;;;;17.60;43.70;;;;;;8233483;28;19914;-48
2021/10/14 09:44:44;;;;;;;;;;;17.60;43.70;;;;;;8233091;28;20379;-48
2021/10/14 09:48:48;;;;;;;;;;;17.60;43.70;;;;;;8233160;28;19914;-49
2021/10/14 09:52:49;;;;;;;;;;;17.60;43.70;;;;;;8233347;28;20420;-49
2021/10/14 09:56:49;;;;;;;;;;;17.60;43.70;;;;;;8233369;28;19927;-47
2021/10/14 10:00:50;;;;;;;;;;;17.70;43.80;;;;;;8232784;28;19956;-49
2021/10/14 10:04:51;;;;;;;;;;;17.60;43.70;;;;;;8232971;28;19922;-48
2021/10/14 10:08:52;;;;;;;;;;;17.60;43.70;;;;;;8231713;28;19914;-48
2021/10/14 10:12:55;;;;;;;;;;;17.60;43.70;;;;;;8233780;28;19914;-48
2021/10/14 10:17:00;;;;;;;;;;;17.70;43.80;;;;;;8233589;28;20001;-48
2021/10/14 10:21:02;;;;;;;;;;;17.70;43.80;;;;;;8239088;28;20009;-50
2021/10/14 10:25:17;;;;;;;;;;;17.70;43.80;;;;;;8239255;28;20501;-49
2021/10/14 10:29:21;;;;;;;;;;;17.70;43.80;;;;;;8239100;28;19946;-48
2021/10/14 10:33:41;;;;;;;;;;;17.70;43.80;;;;;;8239222;28;19910;-50
2021/10/14 10:37:44;;;;;;;;;;;17.70;43.80;;;;;;8238617;28;20017;-47
2021/10/14 10:41:44;;;;;;;;;;;17.70;43.80;;;;;;8238095;28;19968;-49
2021/10/14 10:45:45;;;;;;;;;;;17.80;43.80;;;;;;8238335;28;19922;-50
2021/10/14 10:49:55;;;;;;;;;;;17.80;43.80;;;;;;8238362;28;19992;-48
2021/10/14 10:53:55;;;;;;;;;;;17.80;43.80;;;;;;8238503;28;19918;-49
2021/10/14 10:57:56;;;;;;;;;;;17.80;43.80;;;;;;8238432;28;19914;-48
2021/10/14 11:01:56;;;;;;;;;;;17.80;43.80;;;;;;8237897;28;19995;-49
2021/10/14 11:05:58;;;;;;;;;;;17.80;43.80;;;;;;8237419;28;19922;-48
2021/10/14 11:09:59;;;;;;;;;;;17.90;43.80;;;;;;8238552;28;19943;-48
2021/10/14 11:13:59;;;;;;;;;;;17.80;43.70;;;;;;8237690;28;19953;-50
2021/10/14 11:18:01;;;;;;;;;;;17.90;43.80;;;;;;8237099;28;19929;-48
2021/10/14 11:22:10;;;;;;;;;;;17.80;43.80;;;;;;8237109;28;19929;-49
2021/10/14 11:26:18;;;;;;;;;;;17.90;43.80;;;;;;8237357;28;20391;-50
2021/10/14 11:30:21;;;;;;;;;;;17.90;43.80;;;;;;8237001;28;20368;-50
2021/10/14 11:34:23;;;;;;;;;;;17.90;43.80;;;;;;8236831;28;20001;-52
2021/10/14 11:38:23;;;;;;;;;;;17.90;43.80;;;;;;8236809;28;19914;-49
2021/10/14 11:42:24;;;;;;;;;;;17.90;43.80;;;;;;8236103;28;20022;-49
2021/10/14 11:46:25;;;;;;;;;;;17.90;43.80;;;;;;8237528;28;20005;-50
2021/10/14 11:50:32;;;;;;;;;;;17.90;43.80;;;;;;8236664;28;20023;-50
2021/10/14 11:54:32;;;;;;;;;;;17.90;43.80;;;;;;8236269;28;20024;-52
2021/10/14 11:58:34;;;;;;;;;;;17.90;43.80;;;;;;8236336;28;19914;-50
2021/10/14 12:02:37;;;;;;;;;;;18.00;43.90;;;;;;8236232;28;19918;-48
2021/10/14 12:06:38;;;;;;;;;;;17.90;43.80;;;;;;8236575;28;19914;-49
2021/10/14 12:10:41;;;;;;;;;;;18.00;43.80;;;;;;8236105;28;19914;-50
2021/10/14 12:14:41;;;;;;;;;;;18.00;43.80;;;;;;8235496;28;19948;-50
2021/10/14 12:18:42;;;;;;;;;;;18.00;43.70;;;;;;8235503;28;19918;-49
2021/10/14 12:22:43;;;;;;;;;;;18.10;43.80;;;;;;8236341;28;19965;-49
2021/10/14 12:26:48;;;;;;;;;;;18.10;43.70;;;;;;8234989;28;19914;-48
2021/10/14 12:30:48;;;;;;;;;;;18.10;43.70;;;;;;8235308;28;20295;-49
2021/10/14 12:34:52;;;;;;;;;;;18.10;43.70;;;;;;8235398;28;19910;-49
2021/10/14 12:38:52;;;;;;;;;;;18.00;43.60;;;;;;8235216;28;19941;-49
2021/10/14 12:46:58;;;;;;;;;;;18.10;43.70;;;;;;8234634;28;19987;-48
2021/10/14 12:55:09;;;;;;;;;;;18.10;43.70;;;;;;8236479;28;20427;-47
2021/10/14 12:59:11;;;;;;;;;;;18.10;43.80;;;;;;8234702;28;19960;-48
2021/10/14 13:03:11;;;;;;;;;;;18.10;43.70;;;;;;8233345;28;19922;-49
2021/10/14 13:07:12;;;;;;;;;;;18.10;43.70;;;;;;8234009;28;20379;-48
2021/10/14 13:11:14;;;;;;;;;;;18.10;43.80;;;;;;8233319;28;19924;-49
2021/10/14 13:15:14;;;;;;;;;;;18.10;43.70;;;;;;8234365;28;19910;-49
2021/10/14 13:19:15;;;;;;;;;;;18.20;43.70;;;;;;8233709;28;19914;-50
2021/10/14 13:23:15;;;;;;;;;;;18.20;43.70;;;;;;8233636;28;20012;-49
2021/10/14 13:27:16;;;;;;;;;;;18.10;43.70;;;;;;8233236;28;19968;-48
2021/10/14 13:31:18;;;;;;;;;;;18.20;43.70;;;;;;8234067;28;19977;-49
2021/10/14 13:35:20;;;;;;;;;;;18.20;43.70;;;;;;8234409;28;19910;-52
2021/10/14 13:39:21;;;;;;;;;;;18.20;43.70;;;;;;8231415;28;20001;-51
2021/10/14 13:43:25;;;;;;;;;;;18.20;43.70;;;;;;8233074;28;20152;-50
2021/10/14 13:47:26;;;;;;;;;;;18.20;43.60;;;;;;8232541;28;19929;-52
2021/10/14 13:51:28;;;;;;;;;;;18.20;43.70;;;;;;8234025;28;20253;-50
2021/10/14 13:55:29;;;;;;;;;;;18.20;43.60;;;;;;8232908;28;19988;-51
2021/10/14 13:59:29;;;;;;;;;;;18.20;43.60;;;;;;8233173;28;19910;-51
2021/10/14 14:03:29;;;;;;;;;;;18.20;43.50;;;;;;8232432;28;20491;-49
2021/10/14 14:07:30;;;;;;;;;;;18.20;44.10;;;;;;8231745;28;19915;-47
2021/10/14 14:11:31;;;;;;;;;;;18.20;43.50;;;;;;8233585;28;19917;-48
2021/10/14 14:15:31;;;;;;;;;;;18.20;43.50;;;;;;8232382;28;20290;-49
2021/10/14 14:19:33;;;;;;;;;;;18.30;43.50;;;;;;8232844;28;20304;-48
2021/10/14 14:23:33;;;;;;;;;;;18.20;43.50;;;;;;8232528;28;19922;-49
2021/10/14 14:27:34;;;;;;;;;;;18.30;43.50;;;;;;8232215;28;19960;-51
2021/10/14 14:31:34;;;;;;;;;;;18.30;43.40;;;;;;8232219;28;20283;-48
2021/10/14 14:35:35;;;;;;;;;;;18.30;43.40;;;;;;8232116;28;20363;-49
2021/10/14 14:39:36;;;;;;;;;;;18.30;43.40;;;;;;8231953;28;20363;-48
2021/10/14 14:43:37;;;;;;;;;;;18.30;43.40;;;;;;8232843;28;20390;-49
2021/10/14 14:47:44;;;;;;;;;;;18.30;43.40;;;;;;8232502;28;19918;-50
2021/10/14 14:51:45;;;;;;;;;;;18.30;43.40;;;;;;8231660;28;19972;-50
2021/10/14 14:55:46;;;;;;;;;;;18.30;43.40;;;;;;8230764;28;20012;-51
2021/10/14 14:59:46;;;;;;;;;;;18.30;43.30;;;;;;8231475;28;20001;-51
2021/10/14 15:03:47;;;;;;;;;;;18.30;43.30;;;;;;8234736;28;20299;-49
2021/10/14 15:07:47;;;;;;;;;;;18.30;43.30;;;;;;8237553;28;19921;-51
2021/10/14 15:11:48;;;;;;;;;;;18.30;43.30;;;;;;8236430;28;19918;-51
2021/10/14 15:15:48;;;;;;;;;;;18.30;43.40;;;;;;8238024;28;19914;-50
2021/10/14 15:19:49;;;;;;;;;;;18.30;43.30;;;;;;8238377;28;19910;-49
2021/10/14 15:23:52;;;;;;;;;;;18.30;43.30;;;;;;8236849;28;19922;-51
2021/10/14 15:27:52;;;;;;;;;;;18.30;43.30;;;;;;8237162;28;19918;-49
2021/10/14 15:31:53;;;;;;;;;;;18.30;43.30;;;;;;8237061;28;20381;-52
2021/10/14 15:35:53;;;;;;;;;;;18.30;43.30;;;;;;8236575;28;19910;-51
2021/10/14 15:39:54;;;;;;;;;;;18.30;43.30;;;;;;8237227;28;19933;-53
2021/10/14 15:43:55;;;;;;;;;;;18.30;43.30;;;;;;8236291;28;19928;-50
2021/10/14 15:47:55;;;;;;;;;;;18.30;43.30;;;;;;8234987;28;19913;-52
2021/10/14 15:51:56;;;;;;;;;;;18.30;43.30;;;;;;8234300;28;19930;-51
2021/10/14 15:55:57;;;;;;;;;;;18.30;43.30;;;;;;8225709;28;19922;-49
2021/10/14 16:00:00;;;;;;;;;;;18.30;43.40;;;;;;8225188;28;19922;-49
2021/10/14 16:04:01;;;;;;;;;;;18.30;43.40;;;;;;8231984;28;20024;-53
2021/10/14 16:08:01;;;;;;;;;;;18.30;43.40;;;;;;8252359;28;20410;-51
2021/10/14 16:12:02;;;;;;;;;;;18.30;43.40;;;;;;8254921;28;20426;-51
2021/10/14 16:16:06;;;;;;;;;;;18.30;43.50;;;;;;8235367;28;19918;-49
2021/10/14 16:20:07;;;;;;;;;;;18.30;43.50;;;;;;8235519;28;20004;-49
2021/10/14 16:24:07;;;;;;;;;;;18.30;43.50;;;;;;8234705;28;19929;-49
2021/10/14 16:28:08;;;;;;;;;;;18.30;43.50;;;;;;8235084;28;19914;-50
2021/10/14 16:32:11;;;;;;;;;;;18.20;43.50;;;;;;8235792;28;20382;-52
2021/10/14 16:36:11;;;;;;;;;;;18.30;43.50;;;;;;8232159;28;19914;-50
2021/10/14 16:40:12;;;;;;;;;;;18.30;43.80;;;;;;8221360;28;19984;-49
2021/10/14 16:44:12;;;;;;;;;;;18.20;43.50;;;;;;8234400;28;19925;-50
2021/10/14 16:48:13;;;;;;;;;;;18.20;43.60;;;;;;8234764;28;20360;-52
2021/10/14 16:52:13;;;;;;;;;;;18.20;43.60;;;;;;8234855;28;20402;-49
2021/10/14 16:56:14;;;;;;;;;;;18.20;43.60;;;;;;8234631;28;19914;-50
2021/10/14 17:00:16;;;;;;;;;;;18.20;43.60;;;;;;8233924;28;19914;-52
2021/10/14 17:04:16;;;;;;;;;;;18.20;43.60;;;;;;8234220;28;19960;-49
2021/10/14 17:08:18;;;;;;;;;;;18.30;43.50;;;;;;8233578;28;20276;-51
2021/10/14 17:12:19;;;;;;;;;;;18.30;43.60;;;;;;8233312;28;19994;-50
2021/10/14 17:16:19;;;;;;;;;;;18.30;43.60;;;;;;8233507;28;20379;-52
2021/10/14 17:20:31;;;;;;;;;;;18.20;43.60;;;;;;8234022;28;20371;-49
2021/10/14 17:37:37;;;;;;;;;;;18.20;43.80;;;;;;8233299;28;20438;-52
2021/10/14 17:41:37;;;;;;;;;;;18.20;43.80;;;;;;8232484;28;20015;-49
2021/10/14 17:45:47;;;;;;;;;;;18.20;43.80;;;;;;8233083;28;19918;-51
2021/10/14 17:49:47;;;;;;;;;;;18.20;43.80;;;;;;8234122;28;19925;-50
2021/10/14 17:53:48;;;;;;;;;;;18.20;43.90;;;;;;8233049;28;19922;-50
2021/10/14 17:57:49;;;;;;;;;;;18.20;43.80;;;;;;8232860;28;19934;-50
2021/10/14 18:01:50;;;;;;;;;;;18.20;43.90;;;;;;8225256;28;19933;-48
2021/10/14 18:10:25;;;;;;;;;;;18.20;43.90;;;;;;8233403;28;19921;-48
2021/10/14 18:40:11;;;;;;;;;;;18.10;43.80;;;;;;8242820;28;19921;-49
2021/10/14 18:44:12;;;;;;;;;;;18.10;43.80;;;;;;8238408;28;20276;-50
2021/10/14 18:48:12;;;;;;;;;;;18.10;43.80;;;;;;8238292;28;19910;-50
2021/10/14 18:52:13;;;;;;;;;;;18.10;43.80;;;;;;8238803;28;20279;-49
2021/10/14 18:56:14;;;;;;;;;;;18.10;43.80;;;;;;8238172;28;19914;-51
2021/10/14 19:00:16;;;;;;;;;;;18.10;43.70;;;;;;8237901;28;19918;-49
2021/10/14 19:04:33;;;;;;;;;;;18.10;43.80;;;;;;8238034;28;19926;-48
2021/10/14 19:17:13;;;;;;;;;;;18.10;43.80;;;;;;8237811;28;19968;-47
2021/10/14 20:13:53;;;;;;;;;;;18.10;43.80;;;;;;8238459;28;19976;-48
2021/10/14 20:21:33;;;;;;;;;;;18.10;43.70;;;;;;8236103;28;20520;-49
2021/10/14 20:25:34;;;;;;;;;;;18.10;43.80;;;;;;8235524;28;19933;-50
2021/10/14 20:29:35;;;;;;;;;;;18.00;43.70;;;;;;8235374;28;19981;-49
2021/10/14 20:33:42;;;;;;;;;;;18.10;43.80;;;;;;8235371;28;19914;-50
2021/10/14 20:37:43;;;;;;;;;;;18.10;43.80;;;;;;8240481;28;19965;-49
2021/10/14 20:41:43;;;;;;;;;;;18.10;43.80;;;;;;8235588;28;19920;-48
2021/10/14 20:45:45;;;;;;;;;;;18.00;43.70;;;;;;8234764;28;20323;-47
2021/10/14 20:49:52;;;;;;;;;;;18.10;43.80;;;;;;8234628;28;19910;-47
2021/10/14 20:53:57;;;;;;;;;;;18.00;43.70;;;;;;8233781;28;19924;-49
2021/10/14 21:02:25;;;;;;;;;;;18.10;43.70;;;;;;8238249;28;19922;-48
2021/10/14 21:06:26;;;;;;;;;;;18.10;43.70;;;;;;8234503;28;19922;-50
2021/10/14 21:10:27;;;;;;;;;;;18.00;43.70;;;;;;8234501;28;19920;-50
2021/10/14 21:14:27;;;;;;;;;;;18.00;43.70;;;;;;8233951;28;19921;-49
2021/10/14 21:18:28;;;;;;;;;;;18.00;43.70;;;;;;8234482;28;19917;-49
2021/10/14 21:22:28;;;;;;;;;;;18.00;43.60;;;;;;8234002;28;20000;-50
2021/10/14 21:26:43;;;;;;;;;;;18.00;43.70;;;;;;8233683;28;20351;-49
2021/10/14 21:39:15;;;;;;;;;;;18.00;43.70;;;;;;8234664;28;19964;-48
2021/10/14 21:43:16;;;;;;;;;;;18.00;43.70;;;;;;8233202;28;20328;-49
2021/10/14 21:47:17;;;;;;;;;;;18.00;43.70;;;;;;8233534;28;19914;-49
2021/10/14 21:51:17;;;;;;;;;;;17.90;43.70;;;;;;8232922;28;19914;-49
2021/10/14 21:55:18;;;;;;;;;;;17.90;43.60;;;;;;8234435;28;19918;-48
2021/10/14 21:59:19;;;;;;;;;;;17.90;43.70;;;;;;8234068;28;20009;-49
2021/10/14 22:03:19;;;;;;;;;;;17.90;43.70;;;;;;8234687;28;19922;-48
2021/10/14 22:07:20;;;;;;;;;;;17.90;44.20;;;;;;8235058;28;19953;-48
2021/10/14 22:11:20;;;;;;;;;;;17.90;43.70;;;;;;8234290;28;19922;-48
2021/10/14 22:15:21;;;;;;;;;;;17.90;43.70;;;;;;8240391;28;19909;-52
2021/10/14 22:19:21;;;;;;;;;;;17.90;43.70;;;;;;8239413;28;19992;-47
2021/10/14 22:23:22;;;;;;;;;;;17.90;43.60;;;;;;8239521;28;19965;-48
2021/10/14 22:27:22;;;;;;;;;;;17.90;43.70;;;;;;8238764;28;19918;-49
2021/10/14 22:31:24;;;;;;;;;;;17.90;43.60;;;;;;8239785;28;20260;-48
2021/10/14 22:35:24;;;;;;;;;;;17.90;43.70;;;;;;8238951;28;19918;-49
2021/10/14 22:39:25;;;;;;;;;;;17.90;43.70;;;;;;8238466;28;19921;-47
2021/10/14 22:43:25;;;;;;;;;;;17.90;43.70;;;;;;8238612;28;19928;-48
2021/10/14 22:47:26;;;;;;;;;;;17.80;43.60;;;;;;8239035;28;20410;-48
2021/10/14 22:51:26;;;;;;;;;;;17.80;43.70;;;;;;8238385;28;19918;-49
2021/10/14 22:55:27;;;;;;;;;;;17.80;43.60;;;;;;8238630;28;19918;-48
2021/10/14 22:59:27;;;;;;;;;;;17.80;43.60;;;;;;8237994;28;20363;-49
2021/10/14 23:03:28;;;;;;;;;;;17.80;43.60;;;;;;8237764;28;19926;-48
2021/10/14 23:07:28;;;;;;;;;;;17.80;43.70;;;;;;8238814;28;19911;-48
2021/10/14 23:11:29;;;;;;;;;;;17.80;43.60;;;;;;8237935;28;19914;-48
2021/10/14 23:15:29;;;;;;;;;;;17.80;43.70;;;;;;8237308;28;19914;-48
2021/10/14 23:19:30;;;;;;;;;;;17.80;43.70;;;;;;8237912;28;20364;-48
2021/10/14 23:23:30;;;;;;;;;;;17.80;43.60;;;;;;8237343;28;19937;-48
2021/10/14 23:27:30;;;;;;;;;;;17.80;43.70;;;;;;8237164;28;19914;-48
2021/10/14 23:31:31;;;;;;;;;;;17.70;43.60;;;;;;8237124;28;19914;-48
2021/10/14 23:35:31;;;;;;;;;;;17.80;43.60;;;;;;8237233;28;20357;-51
2021/10/14 23:39:32;;;;;;;;;;;17.80;43.60;;;;;;8236784;28;19910;-51
2021/10/14 23:43:32;;;;;;;;;;;17.80;43.60;;;;;;8237639;28;19918;-49
2021/10/14 23:47:33;;;;;;;;;;;17.80;43.60;;;;;;8236716;28;19918;-47
2021/10/14 23:51:33;;;;;;;;;;;17.70;43.60;;;;;;8236194;28;19925;-47
2021/10/14 23:55:34;;;;;;;;;;;17.70;43.50;;;;;;8236500;28;19929;-48
2021/10/14 23:59:34;;;;;;;;;;;17.70;43.50;;;;;;8237099;28;20011;-48
